Time;durP1;ratioP1;P1;durP2;ratioP2;P2;SDS_P1;SDS_P2;PMS_P1;PMS_P2;Temp;Humidity;BMP_temperature;BMP_pressure;BME280_temperature;BME280_humidity;BME280_pressure;Samples;Min_cycle;Max_cycle;Signal;HPM_P1;HPM_P2
2024/01/08 00:00:56;;;;;;;6.63;3.78;;;-3.50;99.90;;;;;;5022873;28;20045;-61
2024/01/08 00:03:22;;;;;;;5.60;3.17;;;-3.50;99.90;;;;;;5022973;28;20239;-63
2024/01/08 00:05:47;;;;;;;6.70;3.40;;;-3.50;99.90;;;;;;5026898;28;20696;-62
2024/01/08 00:08:14;;;;;;;10.15;3.67;;;-3.60;99.90;;;;;;5027620;28;20433;-62
2024/01/08 00:10:40;;;;;;;8.88;3.95;;;-3.60;99.90;;;;;;5023030;28;20049;-61
2024/01/08 00:13:06;;;;;;;7.75;3.53;;;-3.70;99.90;;;;;;5011608;28;20042;-63
2024/01/08 00:15:31;;;;;;;7.82;4.10;;;-3.70;99.90;;;;;;5018743;28;20048;-62
2024/01/08 00:17:57;;;;;;;6.18;3.65;;;-3.70;99.90;;;;;;5011913;28;20041;-59
2024/01/08 00:20:22;;;;;;;7.18;4.40;;;-3.70;99.90;;;;;;5008884;28;20034;-62
2024/01/08 00:22:48;;;;;;;6.28;3.53;;;-3.70;99.90;;;;;;5010880;28;20521;-61
2024/01/08 00:25:21;;;;;;;7.72;3.75;;;-3.70;99.90;;;;;;5004969;28;20030;-61
2024/01/08 00:27:50;;;;;;;9.65;4.40;;;-3.70;99.90;;;;;;4999663;28;20117;-62
2024/01/08 00:30:16;;;;;;;7.57;3.92;;;-3.80;99.90;;;;;;5004891;28;20124;-61
2024/01/08 00:32:42;;;;;;;6.38;3.95;;;-3.80;99.90;;;;;;5004644;28;20692;-59
2024/01/08 00:35:08;;;;;;;10.52;3.92;;;-3.80;99.90;;;;;;5006951;28;20045;-61
2024/01/08 00:37:35;;;;;;;6.43;3.88;;;-3.70;99.90;;;;;;5004695;28;20472;-60
2024/01/08 00:40:01;;;;;;;6.13;4.10;;;-3.70;99.90;;;;;;5004672;28;20041;-61
2024/01/08 00:42:27;;;;;;;12.93;4.50;;;-3.70;99.90;;;;;;5006479;28;20042;-61
2024/01/08 00:44:52;;;;;;;6.85;3.72;;;-3.70;99.90;;;;;;5010273;28;20030;-61
2024/01/08 00:47:18;;;;;;;7.95;3.58;;;-3.60;99.90;;;;;;5004014;28;20132;-61
2024/01/08 00:49:43;;;;;;;8.05;3.83;;;-3.70;99.90;;;;;;5006372;28;20057;-62
2024/01/08 00:52:09;;;;;;;8.23;3.92;;;-3.80;99.90;;;;;;5000742;28;20037;-61
2024/01/08 00:54:35;;;;;;;7.43;3.50;;;-3.80;99.90;;;;;;5004297;28;20101;-60
2024/01/08 00:57:01;;;;;;;6.43;3.53;;;-3.70;99.90;;;;;;4997540;28;20046;-62
2024/01/08 00:59:26;;;;;;;8.27;4.22;;;-3.80;99.90;;;;;;5005328;28;20493;-61
2024/01/08 01:01:52;;;;;;;6.80;4.25;;;-3.80;99.90;;;;;;5005562;28;20038;-62
2024/01/08 01:04:17;;;;;;;7.07;3.25;;;-3.80;99.90;;;;;;5009149;28;20041;-62
2024/01/08 01:06:44;;;;;;;7.20;3.83;;;-3.80;99.90;;;;;;5009148;28;20037;-61
2024/01/08 01:09:09;;;;;;;8.45;4.10;;;-3.80;99.90;;;;;;5006847;28;20080;-61
2024/01/08 01:11:35;;;;;;;8.25;3.72;;;-3.80;99.90;;;;;;5008399;28;20037;-62
2024/01/08 01:14:01;;;;;;;10.52;4.25;;;-3.90;99.90;;;;;;5002311;28;20038;-62
2024/01/08 01:16:29;;;;;;;5.03;3.28;;;-3.80;99.90;;;;;;5009027;28;20532;-62
2024/01/08 01:18:56;;;;;;;8.63;4.45;;;-3.80;99.90;;;;;;5010728;28;20049;-62
2024/01/08 01:21:22;;;;;;;6.85;3.90;;;-3.80;99.90;;;;;;5007418;28;20046;-62
2024/01/08 01:23:48;;;;;;;7.20;4.10;;;-3.80;99.90;;;;;;5020342;23;20587;-63
2024/01/08 01:26:14;;;;;;;8.88;4.10;;;-3.80;99.90;;;;;;5026116;28;20053;-62
2024/01/08 01:28:40;;;;;;;8.10;3.80;;;-3.70;99.90;;;;;;5027753;28;20090;-61
2024/01/08 01:31:06;;;;;;;6.05;3.97;;;-3.90;99.90;;;;;;5023791;28;20120;-62
2024/01/08 01:33:31;;;;;;;9.07;4.32;;;-3.90;99.90;;;;;;5007852;28;20053;-62
2024/01/08 01:35:57;;;;;;;5.53;3.70;;;-3.90;99.90;;;;;;5006700;28;20057;-63
2024/01/08 01:38:22;;;;;;;9.73;4.35;;;-3.90;99.90;;;;;;5009219;28;20037;-64
2024/01/08 01:40:48;;;;;;;7.75;4.22;;;-3.80;99.90;;;;;;5008564;28;20091;-62
2024/01/08 01:43:21;;;;;;;5.97;3.90;;;-3.90;99.90;;;;;;4998988;28;20155;-63
2024/01/08 01:45:48;;;;;;;7.53;4.10;;;-3.90;99.90;;;;;;5009286;28;20501;-62
2024/01/08 01:48:14;;;;;;;9.88;4.93;;;-3.90;99.90;;;;;;5004917;28;20041;-61
2024/01/08 01:50:39;;;;;;;7.10;4.35;;;-3.90;99.90;;;;;;5006407;28;20038;-62
2024/01/08 01:53:05;;;;;;;9.23;5.40;;;-3.90;99.90;;;;;;5006950;28;20048;-62
2024/01/08 01:55:31;;;;;;;11.18;4.43;;;-3.90;99.90;;;;;;5007894;28;20553;-62
2024/01/08 01:57:56;;;;;;;8.85;5.03;;;-3.90;99.90;;;;;;5004057;28;20044;-63
2024/01/08 02:00:22;;;;;;;9.68;4.53;;;-3.90;99.90;;;;;;5011319;28;20441;-62
2024/01/08 02:02:47;;;;;;;7.40;4.57;;;-4.00;99.90;;;;;;5023927;28;20076;-62
2024/01/08 02:05:14;;;;;;;9.77;5.03;;;-3.90;99.90;;;;;;5031514;28;20037;-63
2024/01/08 02:07:41;;;;;;;8.75;4.60;;;-4.00;99.90;;;;;;5027823;28;20403;-63
2024/01/08 02:10:07;;;;;;;8.25;4.95;;;-3.90;99.90;;;;;;5026953;28;20042;-63
2024/01/08 02:12:32;;;;;;;8.40;4.40;;;-3.90;99.90;;;;;;5028233;28;20502;-63
2024/01/08 02:14:58;;;;;;;6.90;4.38;;;-3.90;99.90;;;;;;5028050;28;20087;-63
2024/01/08 02:17:23;;;;;;;9.55;5.05;;;-4.00;99.90;;;;;;5026329;28;20248;-63
2024/01/08 02:19:49;;;;;;;8.18;4.78;;;-3.90;99.90;;;;;;5027134;28;20558;-63
2024/01/08 02:22:15;;;;;;;8.88;4.80;;;-3.90;99.90;;;;;;5024093;28;20034;-62
2024/01/08 02:24:41;;;;;;;7.65;4.72;;;-3.90;99.90;;;;;;5031755;28;20033;-62
2024/01/08 02:27:07;;;;;;;11.30;5.72;;;-3.80;99.90;;;;;;5021970;28;20041;-61
2024/01/08 02:29:33;;;;;;;10.18;4.60;;;-3.80;99.90;;;;;;5021560;28;20041;-59
2024/01/08 02:31:58;;;;;;;9.98;4.88;;;-3.90;99.90;;;;;;5005441;28;20030;-62
2024/01/08 02:34:25;;;;;;;9.75;4.78;;;-3.80;99.90;;;;;;5004593;28;20044;-62
2024/01/08 02:36:50;;;;;;;9.73;5.03;;;-3.80;99.90;;;;;;5006172;28;20045;-62
2024/01/08 02:39:16;;;;;;;9.40;4.93;;;-3.70;99.90;;;;;;5005441;28;20548;-62
2024/01/08 02:41:41;;;;;;;9.55;5.30;;;-3.80;99.90;;;;;;5004471;28;20041;-62
2024/01/08 02:44:07;;;;;;;8.25;5.18;;;-3.90;99.90;;;;;;4997651;28;20056;-63
2024/01/08 02:46:32;;;;;;;8.90;4.65;;;-3.80;99.90;;;;;;5006338;28;20072;-63
2024/01/08 02:48:59;;;;;;;9.23;4.88;;;-3.80;99.90;;;;;;5001642;28;20088;-63
2024/01/08 02:51:24;;;;;;;7.05;4.43;;;-3.80;99.90;;;;;;5007248;28;20041;-62
2024/01/08 02:53:50;;;;;;;8.80;5.13;;;-3.70;99.90;;;;;;5003203;28;20033;-63
2024/01/08 02:56:19;;;;;;;7.38;4.00;;;-3.80;99.90;;;;;;5005027;28;20137;-63
2024/01/08 02:58:49;;;;;;;8.30;5.00;;;-3.80;99.90;;;;;;4996569;28;20044;-61
2024/01/08 03:01:14;;;;;;;9.13;4.88;;;-3.70;99.90;;;;;;5005387;28;20049;-65
2024/01/08 03:03:40;;;;;;;8.57;4.35;;;-3.70;99.90;;;;;;5000147;28;20045;-63
2024/01/08 03:06:06;;;;;;;7.63;4.63;;;-3.70;99.90;;;;;;5006177;28;20117;-63
2024/01/08 03:08:31;;;;;;;8.57;4.30;;;-3.70;99.90;;;;;;5002942;28;20523;-63
2024/01/08 03:10:57;;;;;;;7.68;4.60;;;-3.70;99.90;;;;;;5007603;28;20034;-63
2024/01/08 03:13:22;;;;;;;7.85;5.13;;;-3.80;99.90;;;;;;4999307;28;20605;-62
2024/01/08 03:15:48;;;;;;;7.82;4.80;;;-3.70;99.90;;;;;;5006832;28;20048;-62
2024/01/08 03:18:13;;;;;;;10.73;5.35;;;-3.70;99.90;;;;;;5000093;28;20046;-60
2024/01/08 03:20:40;;;;;;;9.68;5.07;;;-3.70;99.90;;;;;;5006017;28;20129;-63
2024/01/08 03:23:06;;;;;;;12.52;5.03;;;-3.70;99.90;;;;;;5000920;28;20125;-62
2024/01/08 03:25:31;;;;;;;10.25;4.97;;;-3.70;99.90;;;;;;5007282;28;20576;-63
2024/01/08 03:27:57;;;;;;;7.05;4.47;;;-3.80;99.90;;;;;;5004283;28;20044;-63
2024/01/08 03:30:23;;;;;;;9.13;4.90;;;-3.80;99.90;;;;;;5004981;28;20104;-63
2024/01/08 03:32:48;;;;;;;10.90;4.95;;;-3.80;99.90;;;;;;5004824;28;20044;-61
2024/01/08 03:35:17;;;;;;;9.88;4.65;;;-3.70;99.90;;;;;;5005977;28;20049;-61
2024/01/08 03:37:43;;;;;;;9.13;4.80;;;-3.70;99.90;;;;;;5002134;28;20069;-62
2024/01/08 03:40:09;;;;;;;15.65;4.50;;;-3.70;99.90;;;;;;5005706;28;20076;-63
2024/01/08 03:42:34;;;;;;;8.48;5.30;;;-3.70;99.90;;;;;;5002931;28;20046;-63
2024/01/08 03:45:00;;;;;;;8.38;4.85;;;-3.70;99.90;;;;;;5006254;28;20064;-64
2024/01/08 03:47:26;;;;;;;9.55;5.50;;;-3.70;99.90;;;;;;5001731;28;20724;-62
2024/01/08 03:49:51;;;;;;;9.30;4.90;;;-3.70;99.90;;;;;;5007850;28;20079;-63
2024/01/08 03:52:17;;;;;;;8.63;4.75;;;-3.70;99.90;;;;;;5004880;28;20053;-63
2024/01/08 03:54:42;;;;;;;10.10;5.68;;;-3.70;99.90;;;;;;5010618;28;20037;-62
2024/01/08 03:57:08;;;;;;;10.05;5.22;;;-3.80;99.90;;;;;;5006333;28;20042;-61
2024/01/08 03:59:34;;;;;;;11.88;5.80;;;-3.80;99.90;;;;;;5007134;28;20049;-62
2024/01/08 04:01:59;;;;;;;8.98;5.50;;;-3.80;99.90;;;;;;4959323;28;20572;-62
2024/01/08 04:04:25;;;;;;;11.05;5.97;;;-3.90;99.90;;;;;;5009740;28;20042;-63
2024/01/08 04:06:50;;;;;;;7.68;5.00;;;-3.80;99.90;;;;;;5005785;28;20041;-61
2024/01/08 04:09:17;;;;;;;11.68;5.53;;;-3.80;99.90;;;;;;5004204;28;20030;-62
2024/01/08 04:11:45;;;;;;;9.75;5.88;;;-3.80;99.90;;;;;;5009039;28;20096;-63
2024/01/08 04:14:12;;;;;;;8.52;5.13;;;-3.70;99.90;;;;;;5002931;28;20627;-63
2024/01/08 04:16:38;;;;;;;11.05;5.93;;;-3.70;99.90;;;;;;5007423;28;20050;-62
2024/01/08 04:19:03;;;;;;;9.05;4.63;;;-3.70;99.90;;;;;;5001944;28;20042;-63
2024/01/08 04:21:29;;;;;;;11.15;5.35;;;-3.80;99.90;;;;;;5008151;28;20069;-62
2024/01/08 04:23:54;;;;;;;6.63;4.55;;;-3.90;99.90;;;;;;5001535;28;20041;-63
2024/01/08 04:26:20;;;;;;;9.50;4.57;;;-3.90;99.90;;;;;;5007128;28;20038;-63
2024/01/08 04:28:47;;;;;;;8.30;4.57;;;-3.80;99.90;;;;;;5000875;28;20038;-63
2024/01/08 04:31:19;;;;;;;7.15;4.28;;;-3.80;99.90;;;;;;5006430;28;20042;-62
2024/01/08 04:33:45;;;;;;;9.30;5.10;;;-3.80;99.90;;;;;;5000487;28;20045;-63
2024/01/08 04:36:13;;;;;;;8.93;4.63;;;-3.90;99.90;;;;;;5007825;28;20046;-63
2024/01/08 04:38:39;;;;;;;7.43;3.90;;;-3.90;99.90;;;;;;5000214;28;20596;-63
2024/01/08 04:41:04;;;;;;;6.50;4.35;;;-3.90;99.90;;;;;;5007417;28;20519;-62
2024/01/08 04:43:30;;;;;;;21.58;4.38;;;-3.90;99.90;;;;;;4999408;28;20034;-62
2024/01/08 04:45:55;;;;;;;7.95;4.90;;;-4.00;99.90;;;;;;5005523;28;20046;-63
2024/01/08 04:48:21;;;;;;;7.72;4.32;;;-3.90;99.90;;;;;;4989263;28;20072;-64
2024/01/08 04:50:47;;;;;;;9.05;4.13;;;-3.90;99.90;;;;;;5022048;28;20525;-63
2024/01/08 04:53:12;;;;;;;10.07;4.43;;;-3.90;99.90;;;;;;4989873;28;20046;-63
2024/01/08 04:55:38;;;;;;;13.48;4.85;;;-3.90;99.90;;;;;;5023718;28;20041;-63
2024/01/08 04:58:06;;;;;;;7.97;4.95;;;-3.90;99.90;;;;;;5002322;28;20041;-63
2024/01/08 05:00:31;;;;;;;8.77;5.13;;;-3.90;99.90;;;;;;5006552;28;20667;-62
2024/01/08 05:02:57;;;;;;;13.63;5.20;;;-3.90;99.90;;;;;;4998805;28;20092;-63
2024/01/08 05:05:22;;;;;;;8.43;4.97;;;-3.90;99.90;;;;;;5007017;28;20123;-62
2024/01/08 05:07:48;;;;;;;10.23;5.50;;;-4.00;99.90;;;;;;4999974;28;20065;-63
2024/01/08 05:10:14;;;;;;;9.50;5.32;;;-4.00;99.90;;;;;;5007280;28;20307;-62
2024/01/08 05:12:40;;;;;;;9.20;5.00;;;-4.00;99.90;;;;;;4999390;28;20057;-63
2024/01/08 05:15:06;;;;;;;7.90;4.90;;;-4.00;99.90;;;;;;5006930;28;20037;-63
2024/01/08 05:17:31;;;;;;;9.10;5.20;;;-4.00;99.90;;;;;;5000295;28;20050;-63
2024/01/08 05:19:57;;;;;;;6.93;4.05;;;-3.90;99.90;;;;;;5007063;28;20042;-58
2024/01/08 05:22:22;;;;;;;8.40;4.63;;;-3.90;99.90;;;;;;5001378;28;20038;-63
2024/01/08 05:24:48;;;;;;;9.93;5.47;;;-4.00;99.90;;;;;;5005301;28;20037;-61
2024/01/08 05:27:14;;;;;;;7.78;3.95;;;-4.00;99.90;;;;;;5003675;28;20038;-62
2024/01/08 05:29:39;;;;;;;9.30;5.32;;;-4.00;99.90;;;;;;5001575;28;20030;-62
2024/01/08 05:32:05;;;;;;;7.88;4.60;;;-4.10;99.90;;;;;;4997357;28;20069;-63
2024/01/08 05:34:32;;;;;;;7.07;4.05;;;-4.20;99.90;;;;;;5002881;28;20048;-63
2024/01/08 05:36:57;;;;;;;11.05;5.25;;;-4.30;99.90;;;;;;5004749;28;20045;-63
2024/01/08 05:39:23;;;;;;;9.15;4.25;;;-4.40;99.90;;;;;;5002500;28;20060;-63
2024/01/08 05:41:48;;;;;;;9.90;5.00;;;-4.60;99.90;;;;;;5005389;28;20433;-63
2024/01/08 05:44:14;;;;;;;10.75;4.75;;;-4.60;99.90;;;;;;5000865;28;20062;-63
2024/01/08 05:46:44;;;;;;;23.60;6.43;;;-4.60;99.90;;;;;;5005949;28;20046;-63
2024/01/08 05:49:10;;;;;;;11.95;6.05;;;-4.60;99.90;;;;;;4999385;28;20128;-64
2024/01/08 05:51:36;;;;;;;11.50;5.25;;;-4.50;99.90;;;;;;5006220;28;20121;-62
2024/01/08 05:54:02;;;;;;;10.13;5.72;;;-4.60;99.90;;;;;;5004480;28;20529;-63
2024/01/08 05:56:28;;;;;;;11.32;5.47;;;-4.50;99.90;;;;;;5021223;28;20053;-63
2024/01/08 05:58:54;;;;;;;9.93;5.55;;;-4.50;99.90;;;;;;5000851;28;20065;-63
2024/01/08 06:01:20;;;;;;;9.55;4.97;;;-4.50;99.90;;;;;;5009603;28;20034;-63
2024/01/08 06:03:45;;;;;;;10.55;4.90;;;-4.50;99.90;;;;;;4997957;28;20073;-63
2024/01/08 06:06:12;;;;;;;10.88;4.72;;;-4.50;99.90;;;;;;5016786;28;20037;-62
2024/01/08 06:08:40;;;;;;;10.02;4.72;;;-4.40;99.90;;;;;;5006539;28;20057;-62
2024/01/08 06:11:09;;;;;;;9.27;4.95;;;-4.40;99.90;;;;;;5006437;28;20073;-62
2024/01/08 06:13:36;;;;;;;12.05;5.60;;;-4.40;99.90;;;;;;5005592;28;20068;-61
2024/01/08 06:16:02;;;;;;;9.55;4.53;;;-4.30;99.90;;;;;;5012869;28;20425;-62
2024/01/08 06:18:29;;;;;;;11.50;4.68;;;-4.30;99.90;;;;;;5009418;28;20049;-63
2024/01/08 06:20:56;;;;;;;9.48;4.97;;;-4.40;99.90;;;;;;5007192;28;20583;-63
2024/01/08 06:23:21;;;;;;;9.00;4.40;;;-4.40;99.90;;;;;;4998244;28;20470;-61
2024/01/08 06:25:47;;;;;;;8.23;4.53;;;-4.40;99.90;;;;;;5005025;28;20128;-61
2024/01/08 06:28:13;;;;;;;8.65;4.57;;;-4.30;99.90;;;;;;5000849;28;20445;-63
2024/01/08 06:30:38;;;;;;;9.05;5.00;;;-4.30;99.90;;;;;;5009162;28;20061;-62
2024/01/08 06:33:05;;;;;;;8.65;4.82;;;-4.20;99.90;;;;;;5022044;28;20061;-62
2024/01/08 06:35:31;;;;;;;18.85;4.72;;;-4.30;99.90;;;;;;5025197;28;20377;-63
2024/01/08 06:37:56;;;;;;;8.73;4.68;;;-4.40;99.90;;;;;;5023793;28;20041;-63
2024/01/08 06:40:22;;;;;;;8.30;4.88;;;-4.40;99.90;;;;;;5025219;28;20605;-62
2024/01/08 06:42:48;;;;;;;8.85;4.80;;;-4.30;99.90;;;;;;5030864;28;20055;-63
2024/01/08 06:45:13;;;;;;;13.55;5.30;;;-4.40;99.90;;;;;;5024605;28;20076;-62
2024/01/08 06:47:39;;;;;;;11.68;5.18;;;-4.40;99.90;;;;;;5020724;28;20512;-62
2024/01/08 06:50:05;;;;;;;11.45;5.10;;;-4.30;99.90;;;;;;5024551;28;20046;-62
2024/01/08 06:52:31;;;;;;;9.52;5.32;;;-4.30;99.90;;;;;;5023744;28;20056;-62
2024/01/08 06:54:57;;;;;;;10.25;5.10;;;-4.40;99.90;;;;;;5024134;28;20045;-62
2024/01/08 06:57:22;;;;;;;14.40;4.90;;;-4.50;99.90;;;;;;5024009;28;20561;-63
2024/01/08 06:59:48;;;;;;;11.93;5.25;;;-4.50;99.90;;;;;;5024725;28;20057;-63
2024/01/08 07:02:14;;;;;;;13.43;5.03;;;-4.50;99.90;;;;;;5004902;28;20076;-62
2024/01/08 07:04:41;;;;;;;11.05;5.28;;;-4.50;99.90;;;;;;5004748;28;20668;-64
2024/01/08 07:07:06;;;;;;;12.00;5.55;;;-4.50;99.90;;;;;;5002825;28;20970;-63
2024/01/08 07:09:32;;;;;;;11.13;5.20;;;-4.50;99.90;;;;;;5005467;28;20148;-63
2024/01/08 07:11:58;;;;;;;16.75;7.50;;;-4.60;99.90;;;;;;5003967;28;20038;-61
2024/01/08 07:14:23;;;;;;;11.38;5.68;;;-4.60;99.90;;;;;;5004856;28;20120;-64
2024/01/08 07:16:49;;;;;;;10.45;5.65;;;-4.50;99.90;;;;;;5004389;28;20445;-62
2024/01/08 07:19:14;;;;;;;11.63;4.85;;;-4.60;99.90;;;;;;5003632;28;20808;-60
2024/01/08 07:21:40;;;;;;;10.32;4.95;;;-4.60;99.90;;;;;;4986899;28;20038;-62
2024/01/08 07:24:06;;;;;;;8.23;4.78;;;-4.60;99.90;;;;;;5002040;28;20038;-63
2024/01/08 07:26:31;;;;;;;12.02;4.43;;;-4.70;99.90;;;;;;5004998;28;20038;-63
2024/01/08 07:28:57;;;;;;;10.57;4.05;;;-4.80;99.90;;;;;;5006252;28;20053;-64
2024/01/08 07:31:22;;;;;;;8.02;3.90;;;-4.80;99.90;;;;;;5006162;28;20092;-64
2024/01/08 07:33:48;;;;;;;9.10;4.97;;;-4.90;99.90;;;;;;5002271;28;20037;-63
2024/01/08 07:36:14;;;;;;;7.88;4.28;;;-4.80;99.90;;;;;;5008683;28;20057;-62
2024/01/08 07:38:39;;;;;;;8.50;4.32;;;-4.80;99.90;;;;;;5007397;28;20062;-63
2024/01/08 07:41:07;;;;;;;10.98;5.00;;;-4.90;99.90;;;;;;5008782;28;20123;-63
2024/01/08 07:43:32;;;;;;;10.77;4.30;;;-5.00;99.90;;;;;;5007457;28;20045;-58
2024/01/08 07:45:58;;;;;;;10.85;4.78;;;-5.10;99.90;;;;;;5008362;28;20053;-62
2024/01/08 07:48:24;;;;;;;10.45;3.67;;;-5.20;99.90;;;;;;5006538;28;20042;-59
2024/01/08 07:50:49;;;;;;;6.38;3.67;;;-5.20;99.90;;;;;;5007204;28;20125;-66
2024/01/08 07:53:16;;;;;;;7.88;4.35;;;-5.30;99.90;;;;;;5005350;28;20702;-58
2024/01/08 07:55:42;;;;;;;12.93;4.40;;;-5.40;99.90;;;;;;5008497;28;20099;-63
2024/01/08 07:58:09;;;;;;;8.40;4.18;;;-5.40;99.90;;;;;;5006096;28;20042;-65
2024/01/08 08:00:35;;;;;;;7.80;3.63;;;-5.50;99.90;;;;;;5008825;28;20041;-58
2024/01/08 08:03:00;;;;;;;8.15;3.53;;;-5.50;99.90;;;;;;5016013;28;20059;-66
2024/01/08 08:05:26;;;;;;;8.07;3.58;;;-5.60;99.90;;;;;;5017141;28;20107;-62
2024/01/08 08:07:52;;;;;;;5.50;2.72;;;-5.60;99.90;;;;;;5017375;28;20157;-64
2024/01/08 08:10:18;;;;;;;6.07;3.17;;;-5.70;99.90;;;;;;5012694;28;20124;-65
2024/01/08 08:12:43;;;;;;;6.63;2.83;;;-5.70;99.90;;;;;;5005889;28;20095;-59
2024/01/08 08:15:10;;;;;;;7.25;3.03;;;-5.80;99.90;;;;;;5005241;28;20041;-63
2024/01/08 08:17:40;;;;;;;5.38;3.30;;;-5.90;99.90;;;;;;5005815;28;20054;-62
2024/01/08 08:20:06;;;;;;;5.32;3.53;;;-5.90;99.90;;;;;;5004992;28;20116;-64
2024/01/08 08:22:32;;;;;;;8.40;3.13;;;-6.00;99.90;;;;;;5012812;28;20510;-62
2024/01/08 08:24:57;;;;;;;5.18;2.90;;;-6.10;99.90;;;;;;5008072;28;20133;-61
2024/01/08 08:27:23;;;;;;;5.88;2.72;;;-6.00;99.90;;;;;;5010844;28;20132;-60
2024/01/08 08:29:48;;;;;;;8.15;3.47;;;-6.10;99.90;;;;;;5004423;28;20691;-61
2024/01/08 08:32:15;;;;;;;7.05;3.03;;;-6.00;99.90;;;;;;5020590;28;20050;-61
2024/01/08 08:34:40;;;;;;;5.68;3.00;;;-6.00;99.90;;;;;;5026294;28;20071;-63
2024/01/08 08:37:09;;;;;;;159.20;39.90;;;-6.00;99.90;;;;;;5025308;28;20076;-63
2024/01/08 08:39:38;;;;;;;9.30;4.03;;;-6.00;99.90;;;;;;5025165;28;20037;-63
2024/01/08 08:42:05;;;;;;;6.03;3.00;;;-5.90;99.90;;;;;;5022520;28;20652;-61
2024/01/08 08:44:31;;;;;;;7.93;3.28;;;-6.00;99.90;;;;;;5025257;28;20390;-58
2024/01/08 08:46:57;;;;;;;4.80;3.05;;;-6.00;99.90;;;;;;5026552;28;20574;-60
2024/01/08 08:49:23;;;;;;;9.27;3.72;;;-6.10;99.90;;;;;;5025774;28;20513;-63
2024/01/08 08:51:48;;;;;;;7.30;3.10;;;-6.20;99.90;;;;;;5025932;28;20048;-62
2024/01/08 08:54:14;;;;;;;6.13;3.45;;;-6.20;99.90;;;;;;5026921;28;20040;-63
2024/01/08 08:56:40;;;;;;;6.85;3.40;;;-6.30;99.90;;;;;;5026422;28;20124;-62
2024/01/08 08:59:06;;;;;;;9.15;3.67;;;-6.30;99.90;;;;;;5023178;28;20042;-64
2024/01/08 09:01:31;;;;;;;9.07;4.30;;;-6.10;99.90;;;;;;5021975;28;20041;-63
2024/01/08 09:03:57;;;;;;;11.13;5.43;;;-6.00;99.90;;;;;;5022956;28;20152;-62
2024/01/08 09:06:33;;;;;;;7.82;3.70;;;-6.00;99.90;;;;;;5024900;28;20069;-62
2024/01/08 09:08:59;;;;;;;8.82;4.47;;;-5.90;99.90;;;;;;5022594;28;20037;-64
2024/01/08 09:11:25;;;;;;;12.85;6.55;;;-5.90;99.90;;;;;;5025196;28;20425;-62
2024/01/08 09:13:51;;;;;;;8.77;4.32;;;-5.70;99.90;;;;;;5022244;28;20029;-59
2024/01/08 09:16:17;;;;;;;7.97;4.13;;;-5.60;99.90;;;;;;5024615;28;20041;-61
2024/01/08 09:18:43;;;;;;;6.25;3.75;;;-5.60;99.90;;;;;;5023895;28;20045;-63
2024/01/08 09:21:13;;;;;;;7.88;4.15;;;-5.60;99.90;;;;;;5025885;28;20033;-60
2024/01/08 09:23:43;;;;;;;12.15;4.07;;;-5.60;99.90;;;;;;5023526;28;20111;-61
2024/01/08 09:26:09;;;;;;;9.85;3.85;;;-5.70;99.90;;;;;;5023739;28;20059;-62
2024/01/08 09:28:35;;;;;;;9.93;3.95;;;-5.80;99.90;;;;;;5023104;28;20124;-59
2024/01/08 09:31:02;;;;;;;11.23;4.65;;;-5.80;99.90;;;;;;5026031;28;20121;-58
2024/01/08 09:33:28;;;;;;;10.40;4.72;;;-5.90;99.90;;;;;;5022150;28;20543;-61
2024/01/08 09:35:54;;;;;;;9.13;4.50;;;-6.10;99.90;;;;;;5022807;28;20053;-61
2024/01/08 09:38:19;;;;;;;14.10;6.93;;;-6.00;99.90;;;;;;5022907;28;20688;-60
2024/01/08 09:40:47;;;;;;;11.43;4.63;;;-6.10;99.90;;;;;;5023737;28;20038;-61
2024/01/08 09:43:15;;;;;;;10.93;5.10;;;-6.10;99.90;;;;;;5020761;28;20029;-61
2024/01/08 09:46:04;;;;;;;8.48;4.35;;;-6.10;99.90;;;;;;5022991;28;20048;-60
2024/01/08 09:48:31;;;;;;;27.25;9.98;;;-6.30;99.90;;;;;;5004381;28;20527;-62
2024/01/08 09:51:01;;;;;;;24.13;8.63;;;-6.40;99.90;;;;;;5022454;28;20405;-60
2024/01/08 09:53:31;;;;;;;12.90;6.10;;;-6.30;99.90;;;;;;5021179;28;20041;-61
2024/01/08 09:55:58;;;;;;;10.02;4.25;;;-6.20;99.90;;;;;;5024115;28;20132;-61
2024/01/08 09:58:27;;;;;;;13.18;5.47;;;-6.20;99.90;;;;;;5019705;28;20042;-59
2024/01/08 10:00:53;;;;;;;10.45;4.93;;;-6.20;99.90;;;;;;5024723;28;20688;-60
2024/01/08 10:03:19;;;;;;;17.40;7.65;;;-6.10;99.90;;;;;;5019222;28;20041;-60
2024/01/08 10:05:44;;;;;;;19.95;6.80;;;-5.90;99.90;;;;;;5024865;28;20041;-59
2024/01/08 10:08:10;;;;;;;25.73;9.80;;;-5.70;99.90;;;;;;5021911;28;20480;-60
2024/01/08 10:10:35;;;;;;;16.83;7.25;;;-5.70;99.90;;;;;;5025169;28;20037;-61
2024/01/08 10:13:01;;;;;;;14.80;5.88;;;-5.60;99.90;;;;;;5021693;28;20416;-62
2024/01/08 10:15:27;;;;;;;7.60;4.13;;;-5.60;99.90;;;;;;5024723;28;20096;-58
2024/01/08 10:17:55;;;;;;;10.52;4.55;;;-5.60;99.90;;;;;;5020059;28;20037;-61
2024/01/08 10:20:21;;;;;;;9.30;4.45;;;-5.70;99.90;;;;;;5022213;28;20069;-63
2024/01/08 10:23:08;;;;;;;53.75;16.98;;;-5.70;99.90;;;;;;5021003;28;20114;-60
2024/01/08 10:25:36;;;;;;;12.38;4.93;;;-5.60;99.90;;;;;;5023311;28;20037;-60
2024/01/08 10:28:02;;;;;;;9.60;4.70;;;-5.60;99.90;;;;;;5021249;28;20029;-60
2024/01/08 10:30:28;;;;;;;11.95;5.50;;;-5.60;99.90;;;;;;5021670;28;20139;-60
2024/01/08 10:33:00;;;;;;;11.73;4.80;;;-5.70;99.90;;;;;;5020923;28;20135;-61
2024/01/08 10:35:31;;;;;;;11.52;5.28;;;-5.80;99.90;;;;;;5017059;28;20041;-60
2024/01/08 10:38:00;;;;;;;9.00;4.45;;;-6.00;99.90;;;;;;5022403;28;20045;-59
2024/01/08 10:40:28;;;;;;;8.23;4.03;;;-6.00;99.90;;;;;;5019449;28;20494;-60
2024/01/08 10:42:54;;;;;;;12.40;5.78;;;-6.00;99.90;;;;;;5017750;28;20091;-60
2024/01/08 10:45:20;;;;;;;10.68;4.95;;;-5.90;99.90;;;;;;5018095;28;20061;-61
2024/01/08 10:47:59;;;;;;;8.60;4.93;;;-5.80;99.90;;;;;;5001450;28;20113;-62
2024/01/08 10:50:27;;;;;;;9.15;5.13;;;-5.80;99.90;;;;;;5021543;28;20120;-61
2024/01/08 10:52:56;;;;;;;8.32;4.47;;;-6.00;99.90;;;;;;5017741;28;20041;-63
2024/01/08 10:55:25;;;;;;;10.00;4.15;;;-6.00;99.90;;;;;;5026436;28;20041;-58
2024/01/08 10:58:03;;;;;;;10.05;4.97;;;-5.90;99.90;;;;;;5018654;28;20045;-60
2024/01/08 11:00:30;;;;;;;11.10;5.00;;;-5.90;99.90;;;;;;5023682;28;20513;-60
2024/01/08 11:02:56;;;;;;;10.57;4.47;;;-5.80;99.90;;;;;;5019200;28;20827;-58
2024/01/08 11:05:22;;;;;;;8.75;4.47;;;-5.70;99.90;;;;;;5023614;28;20060;-57
2024/01/08 11:07:50;;;;;;;9.73;4.85;;;-5.70;99.90;;;;;;5018827;28;20080;-56
2024/01/08 11:10:17;;;;;;;10.18;5.40;;;-5.60;99.90;;;;;;5024509;28;20045;-64
2024/01/08 11:13:04;;;;;;;12.13;5.32;;;-5.50;99.90;;;;;;5019443;28;20044;-61
2024/01/08 11:15:31;;;;;;;10.15;4.78;;;-5.60;99.90;;;;;;5024987;28;20139;-62
2024/01/08 11:18:03;;;;;;;8.32;4.45;;;-5.60;99.90;;;;;;5025967;28;20048;-63
2024/01/08 11:20:43;;;;;;;9.27;4.75;;;-5.70;99.90;;;;;;5017522;28;20046;-63
2024/01/08 11:23:41;;;;;;;10.27;4.95;;;-5.70;99.90;;;;;;5022453;28;20120;-56
2024/01/08 11:26:18;;;;;;;10.63;5.13;;;-5.60;99.90;;;;;;4992189;28;20682;-59
2024/01/08 11:29:03;;;;;;;13.45;4.93;;;-5.60;99.90;;;;;;5017746;28;20037;-62
2024/01/08 11:31:38;;;;;;;9.32;5.05;;;-5.70;99.90;;;;;;5007415;28;20073;-61
2024/01/08 11:34:13;;;;;;;11.15;4.72;;;-5.70;99.90;;;;;;5002122;28;20517;-62
2024/01/08 11:36:48;;;;;;;14.27;5.28;;;-5.70;99.90;;;;;;5003444;28;20454;-61
2024/01/08 11:39:19;;;;;;;12.48;6.05;;;-5.70;99.90;;;;;;5004005;28;20417;-59
2024/01/08 11:41:47;;;;;;;15.07;6.88;;;-5.80;99.90;;;;;;5005886;28;20417;-64
2024/01/08 11:44:16;;;;;;;12.98;5.68;;;-5.80;99.90;;;;;;5003103;28;20038;-63
2024/01/08 11:46:42;;;;;;;11.20;5.38;;;-5.80;99.90;;;;;;5005258;28;20068;-63
2024/01/08 11:49:08;;;;;;;12.23;4.88;;;-5.80;99.90;;;;;;5001863;28;20469;-61
2024/01/08 11:51:34;;;;;;;11.52;5.40;;;-5.80;99.90;;;;;;5004937;28;20061;-63
2024/01/08 11:54:11;;;;;;;11.93;6.15;;;-5.80;99.90;;;;;;4999944;28;20473;-63
2024/01/08 11:56:37;;;;;;;9.68;5.30;;;-5.70;99.90;;;;;;5003913;28;20049;-61
2024/01/08 11:59:03;;;;;;;11.52;5.25;;;-5.70;99.90;;;;;;4999578;28;20609;-62
2024/01/08 12:01:29;;;;;;;13.38;6.35;;;-5.70;99.90;;;;;;5010730;28;20042;-62
2024/01/08 12:03:59;;;;;;;13.88;6.63;;;-5.70;99.90;;;;;;5018237;28;20045;-63
2024/01/08 12:06:26;;;;;;;12.75;5.80;;;-5.70;99.90;;;;;;5023141;28;20045;-61
2024/01/08 12:08:56;;;;;;;11.52;5.18;;;-5.80;99.90;;;;;;5018410;28;20055;-62
2024/01/08 12:11:25;;;;;;;12.63;6.07;;;-5.70;99.90;;;;;;5024499;28;20044;-59
2024/01/08 12:13:54;;;;;;;14.60;6.30;;;-5.60;99.90;;;;;;5020238;23;20056;-61
2024/01/08 12:16:21;;;;;;;12.40;5.70;;;-5.70;99.90;;;;;;5025173;28;20049;-61
2024/01/08 12:18:46;;;;;;;13.98;6.13;;;-5.60;99.90;;;;;;5014443;28;20050;-59
2024/01/08 12:21:12;;;;;;;16.63;5.75;;;-5.50;99.90;;;;;;5027789;28;20087;-62
2024/01/08 12:23:38;;;;;;;10.63;5.53;;;-5.50;99.90;;;;;;5019486;28;20062;-63
2024/01/08 12:26:04;;;;;;;11.18;5.50;;;-5.60;99.90;;;;;;5021078;28;20072;-62
2024/01/08 12:28:30;;;;;;;12.63;6.32;;;-5.60;99.90;;;;;;5024219;28;20041;-62
2024/01/08 12:30:59;;;;;;;14.68;5.18;;;-5.70;99.90;;;;;;5019807;28;20046;-59
2024/01/08 12:33:25;;;;;;;10.30;5.05;;;-5.70;99.90;;;;;;5015175;28;20135;-58
2024/01/08 12:35:54;;;;;;;12.95;6.18;;;-5.70;99.90;;;;;;5015776;28;20042;-62
2024/01/08 12:38:21;;;;;;;12.82;5.50;;;-5.60;99.90;;;;;;5013774;28;20088;-62
2024/01/08 12:40:55;;;;;;;12.68;5.30;;;-5.60;99.90;;;;;;5023010;28;20461;-61